Time;durP1;ratioP1;P1;durP2;ratioP2;P2;SDS_P1;SDS_P2;PMS_P1;PMS_P2;Temp;Humidity;BMP_temperature;BMP_pressure;BME280_temperature;BME280_humidity;BME280_pressure;Samples;Min_cycle;Max_cycle;Signal;HPM_P1;HPM_P2
2022/01/30 00:01:37;;;;;;;;;;;6.00;99.90;;;;;;4975238;28;19921;-62
2022/01/30 00:04:03;;;;;;;;;;;;;;;;;;4991260;28;20274;-62
2022/01/30 00:06:28;;;;;;;;;;;6.30;99.90;;;;;;4991194;28;20378;-62
2022/01/30 00:08:54;;;;;;;;;;;6.20;99.90;;;;;;4991110;28;19917;-62
2022/01/30 00:11:23;;;;;;;;;;;;;;;;;;5007331;28;19922;-63
2022/01/30 00:13:50;;;;;;;;;;;;;;;;;;4991160;28;19976;-61
2022/01/30 00:16:18;;;;;;;;;;;6.40;99.90;;;;;;5005737;28;19917;-62
2022/01/30 00:18:53;;;;;;;;;;;6.40;99.90;;;;;;5010474;28;20366;-62
2022/01/30 00:21:45;;;;;;;;;;;6.70;99.90;;;;;;5010699;28;20390;-61
2022/01/30 00:24:13;;;;;;;;;;;6.60;99.90;;;;;;4996603;28;19924;-61
2022/01/30 00:26:40;;;;;;;;;;;;;;;;;;5018003;28;19930;-61
2022/01/30 00:29:07;;;;;;;;;;;6.50;99.90;;;;;;5056322;28;19967;-61
2022/01/30 00:31:34;;;;;;;;;;;6.30;99.90;;;;;;5073391;28;19971;-60
2022/01/30 00:34:00;;;;;;;;;;;;;;;;;;5073738;28;20006;-60
2022/01/30 00:36:26;;;;;;;;;;;6.90;99.90;;;;;;5069896;28;20372;-60
2022/01/30 00:38:51;;;;;;;;;;;6.30;99.90;;;;;;5073608;28;19974;-63
2022/01/30 00:41:17;;;;;;;;;;;6.30;99.90;;;;;;5056031;28;19916;-60
2022/01/30 00:43:43;;;;;;;;;;;6.60;99.90;;;;;;5073067;28;19959;-60
2022/01/30 00:46:08;;;;;;;;;;;6.30;99.90;;;;;;5059959;28;19921;-60
2022/01/30 00:48:34;;;;;;;;;;;6.30;99.90;;;;;;5053389;28;20042;-60
2022/01/30 00:50:59;;;;;;;;;;;6.20;99.90;;;;;;5035962;28;19917;-60
2022/01/30 00:53:25;;;;;;;;;;;6.20;99.90;;;;;;5053917;28;19962;-60
2022/01/30 00:55:51;;;;;;;;;;;;;;;;;;5057522;28;19916;-60
2022/01/30 00:58:16;;;;;;;;;;;6.70;99.90;;;;;;5058525;28;20020;-60
2022/01/30 01:00:42;;;;;;;;;;;6.60;99.90;;;;;;5059869;28;19917;-60
2022/01/30 01:03:08;;;;;;;;;;;6.20;99.90;;;;;;5076825;28;20399;-60
2022/01/30 01:05:35;;;;;;;;;;;;;;;;;;5056782;28;19916;-60
2022/01/30 01:08:09;;;;;;;;;;;6.20;99.90;;;;;;5055483;28;19917;-60
2022/01/30 01:10:58;;;;;;;;;;;6.10;99.90;;;;;;5056826;28;19916;-60
2022/01/30 01:24:04;;;;;;;;;;;;;;;;;;5077532;28;19920;-60
2022/01/30 01:26:30;;;;;;;;;;;6.10;99.90;;;;;;5072181;28;20007;-61
2022/01/30 01:28:55;;;;;;;;;;;6.00;99.90;;;;;;5076383;28;19990;-60
2022/01/30 01:31:22;;;;;;;;;;;5.90;99.90;;;;;;5076407;28;20361;-61
2022/01/30 01:36:51;;;;;;;;;;;5.90;99.90;;;;;;5015076;28;19917;-60
2022/01/30 01:39:17;;;;;;;;;;;5.70;99.90;;;;;;4997923;28;19923;-60
2022/01/30 01:41:42;;;;;;;;;;;5.90;99.90;;;;;;5013961;28;19994;-60
2022/01/30 01:44:08;;;;;;;;;;;;;;;;;;5014092;28;19917;-60
2022/01/30 01:46:35;;;;;;;;;;;6.00;99.90;;;;;;5014638;28;19918;-60
2022/01/30 01:49:01;;;;;;;;;;;5.80;99.90;;;;;;4997593;28;19917;-60
2022/01/30 01:51:29;;;;;;;;;;;5.80;99.90;;;;;;4997335;28;19917;-60
2022/01/30 01:53:58;;;;;;;;;;;6.00;99.90;;;;;;5013828;28;20386;-64
2022/01/30 01:56:25;;;;;;;;;;;6.00;99.90;;;;;;5013851;28;19971;-60
2022/01/30 01:58:51;;;;;;;;;;;5.80;99.90;;;;;;5013808;28;19918;-60
2022/01/30 02:01:17;;;;;;;;;;;;;;;;;;5013927;28;19925;-60
2022/01/30 02:03:44;;;;;;;;;;;;;;;;;;5013423;28;19924;-61
2022/01/30 02:06:13;;;;;;;;;;;6.00;99.90;;;;;;5012689;28;20398;-60
2022/01/30 02:08:42;;;;;;;;;;;;;;;;;;5035729;28;20352;-61
2022/01/30 02:11:27;;;;;;;;;;;6.20;99.90;;;;;;5056171;28;19943;-61
2022/01/30 02:24:35;;;;;;;;;;;6.00;99.90;;;;;;5055441;28;19917;-60
2022/01/30 02:27:01;;;;;;;;;;;6.10;99.90;;;;;;5039595;28;19921;-61
2022/01/30 02:29:27;;;;;;;;;;;6.50;99.90;;;;;;5071814;28;19920;-61
2022/01/30 02:31:56;;;;;;;;;;;6.30;99.90;;;;;;5055414;28;20418;-60
2022/01/30 02:34:26;;;;;;;;;;;6.40;99.90;;;;;;5077932;28;19989;-61
2022/01/30 02:36:53;;;;;;;;;;;6.20;99.90;;;;;;5095285;28;20426;-61
2022/01/30 02:39:19;;;;;;;;;;;6.40;99.90;;;;;;5095477;28;19999;-60
2022/01/30 02:41:44;;;;;;;;;;;6.20;99.90;;;;;;5093512;28;19916;-61
2022/01/30 02:44:16;;;;;;;;;;;;;;;;;;5057205;28;19916;-60
2022/01/30 02:46:51;;;;;;;;;;;6.20;99.90;;;;;;5057846;28;19952;-61
2022/01/30 02:51:54;;;;;;;;;;;6.20;99.90;;;;;;5088516;28;19960;-61
2022/01/30 02:54:19;;;;;;;;;;;5.70;99.90;;;;;;5095087;28;19920;-60
2022/01/30 02:56:45;;;;;;;;;;;6.00;99.90;;;;;;5095235;28;19985;-61
2022/01/30 02:59:12;;;;;;;;;;;6.00;99.90;;;;;;5042439;28;19995;-61
2022/01/30 03:01:37;;;;;;;;;;;5.90;99.90;;;;;;5054859;28;19917;-61
2022/01/30 03:04:03;;;;;;;;;;;6.40;99.90;;;;;;5054771;28;19962;-61
2022/01/30 03:06:29;;;;;;;;;;;6.10;99.90;;;;;;5054326;28;19920;-61
2022/01/30 03:08:54;;;;;;;;;;;6.20;99.90;;;;;;5054737;28;19971;-60
2022/01/30 03:11:20;;;;;;;;;;;6.30;99.90;;;;;;5054708;28;20007;-60
2022/01/30 03:13:45;;;;;;;;;;;6.00;99.90;;;;;;5036929;28;19999;-60
2022/01/30 03:16:11;;;;;;;;;;;6.20;99.90;;;;;;5039948;28;19916;-60
2022/01/30 03:18:36;;;;;;;;;;;6.00;99.90;;;;;;5073988;28;19916;-61
2022/01/30 03:21:02;;;;;;;;;;;;;;;;;;5074512;28;19920;-60
2022/01/30 03:23:29;;;;;;;;;;;;;;;;;;5074510;28;19923;-61
2022/01/30 03:25:58;;;;;;;;;;;5.70;99.90;;;;;;5074476;28;19924;-61
2022/01/30 03:28:24;;;;;;;;;;;5.80;99.90;;;;;;5074027;28;19916;-60
2022/01/30 03:30:53;;;;;;;;;;;5.60;99.90;;;;;;5057626;28;19927;-60
2022/01/30 03:33:19;;;;;;;;;;;;;;;;;;5057285;28;19958;-60
2022/01/30 03:35:45;;;;;;;;;;;6.00;99.90;;;;;;5074335;28;19916;-61
2022/01/30 03:38:10;;;;;;;;;;;5.70;99.90;;;;;;5074155;28;19920;-61
2022/01/30 03:40:36;;;;;;;;;;;5.80;99.90;;;;;;5067423;28;19917;-61
2022/01/30 03:43:01;;;;;;;;;;;5.70;99.90;;;;;;5054274;28;19916;-61
2022/01/30 03:45:27;;;;;;;;;;;5.40;99.90;;;;;;5054296;28;19984;-61
2022/01/30 03:47:55;;;;;;;;;;;5.80;99.90;;;;;;5054190;28;19916;-60
2022/01/30 03:50:21;;;;;;;;;;;5.80;99.90;;;;;;5069562;28;19960;-60
2022/01/30 03:52:47;;;;;;;;;;;5.90;99.90;;;;;;5050418;28;19967;-60
2022/01/30 03:55:12;;;;;;;;;;;5.70;99.90;;;;;;5094139;28;20305;-60
2022/01/30 03:57:38;;;;;;;;;;;5.80;99.90;;;;;;5076639;28;19924;-60
2022/01/30 04:00:04;;;;;;;;;;;5.80;99.90;;;;;;5075111;28;20012;-62
2022/01/30 04:02:30;;;;;;;;;;;5.70;99.90;;;;;;5053368;28;19920;-61
2022/01/30 04:04:55;;;;;;;;;;;5.50;99.90;;;;;;5053790;28;19970;-60
2022/01/30 04:07:21;;;;;;;;;;;5.50;99.90;;;;;;5053996;28;19922;-61
2022/01/30 04:09:47;;;;;;;;;;;5.50;99.90;;;;;;5054543;28;19979;-60
2022/01/30 04:12:13;;;;;;;;;;;5.90;99.90;;;;;;5093523;28;20001;-61
2022/01/30 04:14:38;;;;;;;;;;;5.40;99.90;;;;;;5054895;28;19939;-61
2022/01/30 04:17:05;;;;;;;;;;;5.60;99.90;;;;;;5053666;28;19967;-61
2022/01/30 04:19:30;;;;;;;;;;;5.80;99.90;;;;;;5054049;28;19916;-61
2022/01/30 04:21:56;;;;;;;;;;;5.80;99.90;;;;;;5036017;28;19986;-61
2022/01/30 04:24:21;;;;;;;;;;;5.80;99.90;;;;;;5053845;28;20007;-61
2022/01/30 04:26:47;;;;;;;;;;;5.30;99.90;;;;;;5053220;28;19917;-61
2022/01/30 04:29:12;;;;;;;;;;;5.70;99.90;;;;;;5054627;28;19963;-61
2022/01/30 04:31:38;;;;;;;;;;;5.40;99.90;;;;;;5066548;28;19916;-61
2022/01/30 04:34:04;;;;;;;;;;;5.80;99.90;;;;;;5059797;28;19916;-61
2022/01/30 04:36:35;;;;;;;;;;;5.50;99.90;;;;;;5076279;28;20376;-61
2022/01/30 04:39:11;;;;;;;;;;;5.60;99.90;;;;;;5040066;28;19952;-61
2022/01/30 04:58:35;;;;;;;;;;;5.40;99.90;;;;;;5014879;28;19917;-61
2022/01/30 05:01:01;;;;;;;;;;;5.90;99.90;;;;;;5013342;28;19922;-61
2022/01/30 05:06:05;;;;;;;;;;;5.50;99.90;;;;;;5016002;28;19924;-61
2022/01/30 05:08:31;;;;;;;;;;;5.60;99.90;;;;;;5015031;28;19917;-61
2022/01/30 05:10:57;;;;;;;;;;;5.60;99.90;;;;;;4987859;28;19918;-61
2022/01/30 05:13:26;;;;;;;;;;;5.40;99.90;;;;;;4994760;28;20350;-61
2022/01/30 05:15:51;;;;;;;;;;;5.40;99.90;;;;;;4979010;28;19941;-61
2022/01/30 05:18:18;;;;;;;;;;;5.40;99.90;;;;;;4995276;28;20278;-61
2022/01/30 05:20:44;;;;;;;;;;;5.40;99.90;;;;;;5022302;28;19916;-61
2022/01/30 05:23:09;;;;;;;;;;;5.40;99.90;;;;;;5056767;28;20376;-61
2022/01/30 05:25:35;;;;;;;;;;;5.60;99.90;;;;;;5063718;28;20411;-62
2022/01/30 05:28:01;;;;;;;;;;;5.40;99.90;;;;;;5076864;28;20349;-61
2022/01/30 05:30:27;;;;;;;;;;;5.70;99.90;;;;;;5076636;28;19916;-61
2022/01/30 05:32:53;;;;;;;;;;;5.30;99.90;;;;;;5058564;28;19965;-61
2022/01/30 05:35:18;;;;;;;;;;;5.70;99.90;;;;;;5049075;28;20276;-60
2022/01/30 05:37:44;;;;;;;;;;;5.70;99.90;;;;;;5021827;28;19979;-61
2022/01/30 05:40:10;;;;;;;;;;;5.70;99.90;;;;;;5038833;28;19916;-61
2022/01/30 05:42:37;;;;;;;;;;;5.70;99.90;;;;;;5056750;28;19917;-61
2022/01/30 05:45:16;;;;;;;;;;;5.90;99.90;;;;;;5055910;28;19932;-61
2022/01/30 05:47:47;;;;;;;;;;;;;;;;;;5056344;28;19917;-61
2022/01/30 05:50:13;;;;;;;;;;;5.90;99.90;;;;;;5056850;28;19917;-61
2022/01/30 05:52:38;;;;;;;;;;;5.30;99.90;;;;;;5056114;28;20270;-62
2022/01/30 05:55:04;;;;;;;;;;;5.70;99.90;;;;;;5056205;28;20007;-61
2022/01/30 05:57:30;;;;;;;;;;;5.60;99.90;;;;;;5055793;28;20007;-61
2022/01/30 05:59:56;;;;;;;;;;;5.60;99.90;;;;;;5056377;28;19917;-61
2022/01/30 06:02:21;;;;;;;;;;;5.60;99.90;;;;;;5056304;28;20015;-61
2022/01/30 06:04:47;;;;;;;;;;;5.50;99.90;;;;;;5056021;28;19924;-61
2022/01/30 06:07:13;;;;;;;;;;;5.40;99.90;;;;;;5056516;28;19924;-61
2022/01/30 06:09:38;;;;;;;;;;;5.40;99.90;;;;;;5057909;28;20332;-61
2022/01/30 06:12:04;;;;;;;;;;;5.20;99.90;;;;;;5042513;28;19920;-61
2022/01/30 06:14:30;;;;;;;;;;;5.10;99.90;;;;;;5075702;28;19923;-61
2022/01/30 06:16:55;;;;;;;;;;;5.30;99.90;;;;;;5075382;28;19916;-61
2022/01/30 06:19:22;;;;;;;;;;;5.40;99.90;;;;;;5075442;28;19976;-61
2022/01/30 06:21:48;;;;;;;;;;;5.50;99.90;;;;;;5074383;28;19916;-61
2022/01/30 06:24:13;;;;;;;;;;;5.50;99.90;;;;;;5055449;28;19916;-61
2022/01/30 06:26:39;;;;;;;;;;;;;;;;;;5055558;28;19970;-61
2022/01/30 06:29:05;;;;;;;;;;;;;;;;;;5055281;28;20326;-61
2022/01/30 06:31:31;;;;;;;;;;;5.80;99.90;;;;;;5055117;28;20353;-61
2022/01/30 06:33:56;;;;;;;;;;;5.50;99.90;;;;;;5055599;28;20022;-61
2022/01/30 06:36:22;;;;;;;;;;;5.80;99.90;;;;;;5054986;28;19920;-61
2022/01/30 06:38:47;;;;;;;;;;;5.60;99.90;;;;;;5075042;28;19924;-61
2022/01/30 06:41:13;;;;;;;;;;;5.60;99.90;;;;;;5053393;28;20022;-61
2022/01/30 06:43:39;;;;;;;;;;;5.70;99.90;;;;;;5075217;28;20011;-61
2022/01/30 06:46:04;;;;;;;;;;;5.70;99.90;;;;;;5057957;28;20349;-62
2022/01/30 06:48:30;;;;;;;;;;;5.60;99.90;;;;;;5075096;28;20361;-62
2022/01/30 06:50:56;;;;;;;;;;;6.00;99.90;;;;;;5075023;28;19916;-62
2022/01/30 06:53:23;;;;;;;;;;;5.60;99.90;;;;;;5074098;28;19920;-62
2022/01/30 06:55:48;;;;;;;;;;;5.60;99.90;;;;;;5074729;28;19920;-62
2022/01/30 06:58:14;;;;;;;;;;;6.00;99.90;;;;;;5073672;28;20296;-62
2022/01/30 07:00:40;;;;;;;;;;;5.70;99.90;;;;;;5055426;28;20004;-62
2022/01/30 07:03:05;;;;;;;;;;;5.70;99.90;;;;;;5060221;28;20375;-62
2022/01/30 07:05:31;;;;;;;;;;;5.50;99.90;;;;;;5072271;28;19916;-62
2022/01/30 07:07:56;;;;;;;;;;;5.70;99.90;;;;;;5069969;28;19992;-61
2022/01/30 07:10:22;;;;;;;;;;;6.30;99.90;;;;;;5056867;28;20400;-62
2022/01/30 07:12:47;;;;;;;;;;;6.00;99.90;;;;;;5075195;28;19920;-62
2022/01/30 07:15:14;;;;;;;;;;;5.90;99.90;;;;;;5075257;28;20353;-62
2022/01/30 07:17:40;;;;;;;;;;;6.00;99.90;;;;;;5074294;28;19920;-62
2022/01/30 07:20:05;;;;;;;;;;;6.30;99.90;;;;;;5074864;28;19916;-62
2022/01/30 07:22:31;;;;;;;;;;;6.20;99.90;;;;;;5074195;28;19916;-62
2022/01/30 07:24:57;;;;;;;;;;;5.80;99.90;;;;;;5069807;28;20010;-62
2022/01/30 07:27:22;;;;;;;;;;;5.90;99.90;;;;;;5070992;28;19920;-63
2022/01/30 07:29:48;;;;;;;;;;;6.00;99.90;;;;;;5073568;28;19916;-62
2022/01/30 07:32:13;;;;;;;;;;;5.80;99.90;;;;;;5075240;28;19917;-62
2022/01/30 07:34:39;;;;;;;;;;;;;;;;;;5056472;28;20356;-62
2022/01/30 07:37:05;;;;;;;;;;;6.00;99.90;;;;;;5039761;28;20411;-62
2022/01/30 07:39:31;;;;;;;;;;;6.10;99.90;;;;;;5038192;28;19966;-62
2022/01/30 07:41:58;;;;;;;;;;;6.20;99.90;;;;;;5070046;28;19947;-62
2022/01/30 07:44:23;;;;;;;;;;;6.10;99.90;;;;;;5054197;28;19924;-61
2022/01/30 07:46:49;;;;;;;;;;;6.40;99.90;;;;;;5053386;28;19921;-62
2022/01/30 07:49:15;;;;;;;;;;;5.90;99.90;;;;;;5073673;28;19916;-61
2022/01/30 07:51:40;;;;;;;;;;;5.80;99.90;;;;;;5074171;28;20305;-62
2022/01/30 07:54:06;;;;;;;;;;;6.10;99.90;;;;;;5056199;28;19962;-62
2022/01/30 07:56:31;;;;;;;;;;;5.90;99.90;;;;;;5056134;28;19916;-62
2022/01/30 07:58:57;;;;;;;;;;;5.70;99.90;;;;;;5074130;28;20349;-62
2022/01/30 08:01:23;;;;;;;;;;;6.10;99.90;;;;;;5073884;28;20003;-62
2022/01/30 08:03:48;;;;;;;;;;;6.10;99.90;;;;;;5074061;28;19916;-62
2022/01/30 08:06:14;;;;;;;;;;;5.90;99.90;;;;;;5076426;28;19963;-62
2022/01/30 08:08:39;;;;;;;;;;;6.00;99.90;;;;;;5058183;28;19916;-62
2022/01/30 08:11:07;;;;;;;;;;;5.90;99.90;;;;;;5040254;28;19920;-62
2022/01/30 08:13:32;;;;;;;;;;;6.10;99.90;;;;;;5066925;28;19916;-62
2022/01/30 08:15:58;;;;;;;;;;;5.90;99.90;;;;;;5060104;28;19939;-62
2022/01/30 08:18:24;;;;;;;;;;;6.20;99.90;;;;;;5077954;28;19916;-62
2022/01/30 08:20:50;;;;;;;;;;;;;;;;;;5079675;28;19917;-61
2022/01/30 08:23:18;;;;;;;;;;;6.00;99.90;;;;;;5077915;28;20351;-62
2022/01/30 08:25:43;;;;;;;;;;;6.00;99.90;;;;;;5077881;28;20015;-64
2022/01/30 08:28:09;;;;;;;;;;;6.10;99.90;;;;;;5070274;28;20003;-61
2022/01/30 08:30:35;;;;;;;;;;;6.10;99.90;;;;;;5042697;28;20261;-61
2022/01/30 08:33:02;;;;;;;;;;;6.00;99.90;;;;;;5037537;28;19923;-61
2022/01/30 08:35:28;;;;;;;;;;;5.90;99.90;;;;;;5021841;28;19917;-62
2022/01/30 08:37:54;;;;;;;;;;;6.00;99.90;;;;;;5056844;28;19959;-62
2022/01/30 08:40:21;;;;;;;;;;;5.70;99.90;;;;;;5020010;28;20366;-61
2022/01/30 08:42:46;;;;;;;;;;;5.80;99.90;;;;;;5049103;28;20322;-61
2022/01/30 08:45:13;;;;;;;;;;;;;;;;;;5057519;28;19921;-62
2022/01/30 08:47:39;;;;;;;;;;;5.60;99.90;;;;;;5053420;28;19917;-61
2022/01/30 08:50:05;;;;;;;;;;;5.50;99.90;;;;;;5037350;28;20015;-62
2022/01/30 08:52:30;;;;;;;;;;;5.60;99.90;;;;;;5037414;28;19952;-62
2022/01/30 08:54:56;;;;;;;;;;;5.90;99.90;;;;;;5048494;28;19978;-62
2022/01/30 08:57:21;;;;;;;;;;;5.90;99.90;;;;;;5057262;28;19920;-63
2022/01/30 08:59:47;;;;;;;;;;;6.00;99.90;;;;;;5037994;28;19917;-63
2022/01/30 09:02:12;;;;;;;;;;;5.90;99.90;;;;;;5056743;28;19999;-62
2022/01/30 09:04:38;;;;;;;;;;;6.10;99.90;;;;;;5049211;28;20361;-62
2022/01/30 09:07:03;;;;;;;;;;;6.30;99.90;;;;;;5060212;28;20396;-61
2022/01/30 09:09:30;;;;;;;;;;;6.20;99.90;;;;;;5056661;28;19921;-62
2022/01/30 09:11:58;;;;;;;;;;;6.20;99.90;;;;;;5030297;28;19917;-62
2022/01/30 09:14:25;;;;;;;;;;;6.00;99.90;;;;;;5036548;28;19986;-62
2022/01/30 09:16:50;;;;;;;;;;;6.30;99.90;;;;;;5018112;28;19944;-63
2022/01/30 09:19:16;;;;;;;;;;;6.10;99.90;;;;;;5019490;28;19917;-63
2022/01/30 09:21:42;;;;;;;;;;;;;;;;;;5053130;28;19916;-62
2022/01/30 09:24:07;;;;;;;;;;;6.30;99.90;;;;;;5056434;28;20281;-62
2022/01/30 09:26:33;;;;;;;;;;;6.50;99.90;;;;;;5028997;28;19917;-62
2022/01/30 09:28:58;;;;;;;;;;;6.70;99.90;;;;;;5065531;28;19928;-63
2022/01/30 09:31:24;;;;;;;;;;;7.00;99.90;;;;;;5068081;28;19917;-62
2022/01/30 09:33:49;;;;;;;;;;;6.80;99.90;;;;;;5076253;28;19923;-60
2022/01/30 09:36:15;;;;;;;;;;;7.00;99.90;;;;;;5068551;28;19996;-60
2022/01/30 09:38:41;;;;;;;;;;;7.10;99.90;;;;;;5056524;28;19917;-63
2022/01/30 09:41:07;;;;;;;;;;;;;;;;;;5055911;28;19917;-62
2022/01/30 09:43:32;;;;;;;;;;;;;;;;;;5055633;28;19924;-61
2022/01/30 09:45:58;;;;;;;;;;;7.00;99.90;;;;;;5057661;28;19929;-64
2022/01/30 09:48:24;;;;;;;;;;;7.10;99.90;;;;;;5034328;28;19923;-66
2022/01/30 09:50:50;;;;;;;;;;;7.40;99.90;;;;;;5058454;28;19967;-61
2022/01/30 09:53:16;;;;;;;;;;;7.00;99.90;;;;;;5055644;28;19970;-65
2022/01/30 09:55:41;;;;;;;;;;;7.30;99.90;;;;;;5088252;28;19916;-60
2022/01/30 09:58:08;;;;;;;;;;;7.50;99.90;;;;;;5096625;28;19916;-58
2022/01/30 10:00:34;;;;;;;;;;;7.40;99.90;;;;;;5091085;28;19920;-58
2022/01/30 10:02:59;;;;;;;;;;;7.60;99.90;;;;;;5076314;28;19927;-61
2022/01/30 10:05:26;;;;;;;;;;;;;;;;;;5070579;28;19916;-61
2022/01/30 10:07:55;;;;;;;;;;;7.70;99.90;;;;;;5070227;28;20277;-62
2022/01/30 10:10:24;;;;;;;;;;;7.20;99.90;;;;;;5075766;28;19923;-63
2022/01/30 10:13:08;;;;;;;;;;;7.50;99.90;;;;;;5060094;28;20377;-58
2022/01/30 10:15:49;;;;;;;;;;;7.50;99.90;;;;;;5054807;28;19931;-57
2022/01/30 10:18:15;;;;;;;;;;;7.20;99.90;;;;;;5072030;28;19978;-59
2022/01/30 10:20:41;;;;;;;;;;;;;;;;;;5075729;28;20349;-61
2022/01/30 10:23:10;;;;;;;;;;;;;;;;;;5074065;28;20361;-60
2022/01/30 10:25:36;;;;;;;;;;;7.30;99.90;;;;;;5069883;28;19920;-59
2022/01/30 10:28:12;;;;;;;;;;;7.50;99.90;;;;;;5068486;28;19970;-57
2022/01/30 10:30:48;;;;;;;;;;;7.50;99.90;;;;;;5055526;28;19916;-59
2022/01/30 10:33:14;;;;;;;;;;;7.50;99.90;;;;;;5055174;28;19963;-60
2022/01/30 10:35:40;;;;;;;;;;;;;;;;;;5054014;28;20007;-61
2022/01/30 10:38:17;;;;;;;;;;;7.80;99.90;;;;;;5051143;28;20015;-58
2022/01/30 10:40:46;;;;;;;;;;;;;;;;;;5018209;28;19916;-58
2022/01/30 10:43:12;;;;;;;;;;;;;;;;;;5045315;28;19916;-64
2022/01/30 10:45:38;;;;;;;;;;;;;;;;;;5036763;28;19923;-57
2022/01/30 10:48:17;;;;;;;;;;;7.80;99.90;;;;;;5055001;28;19923;-59
2022/01/30 10:50:44;;;;;;;;;;;7.90;99.90;;;;;;5055526;28;19917;-59
2022/01/30 10:53:23;;;;;;;;;;;7.90;99.90;;;;;;5038083;28;19987;-58
2022/01/30 10:55:48;;;;;;;;;;;7.80;99.90;;;;;;5054373;28;19995;-59
2022/01/30 10:58:14;;;;;;;;;;;;;;;;;;5045848;28;19968;-58
2022/01/30 11:00:44;;;;;;;;;;;7.80;99.90;;;;;;5031972;28;20261;-64
2022/01/30 11:03:30;;;;;;;;;;;8.10;99.90;;;;;;5054876;28;19917;-63
2022/01/30 11:05:56;;;;;;;;;;;;;;;;;;5054673;28;19917;-60
2022/01/30 11:08:22;;;;;;;;;;;8.00;99.90;;;;;;5054481;28;20385;-59
2022/01/30 11:10:57;;;;;;;;;;;8.00;99.90;;;;;;5036912;28;20304;-64
2022/01/30 11:13:32;;;;;;;;;;;8.00;99.90;;;;;;5035955;28;19928;-62
2022/01/30 11:16:55;;;;;;;;;;;8.10;99.90;;;;;;5054206;28;20373;-58
2022/01/30 11:18:44;;;;;;;;;;;8.10;99.90;;;;;;5044495;28;19917;-62
2022/01/30 11:21:10;;;;;;;;;;;7.80;99.90;;;;;;5035285;28;20376;-60
2022/01/30 11:23:37;;;;;;;;;;;8.20;99.90;;;;;;5020199;28;19917;-58
2022/01/30 11:26:03;;;;;;;;;;;7.80;99.90;;;;;;5053566;28;19924;-66
2022/01/30 11:28:28;;;;;;;;;;;7.90;99.90;;;;;;5046339;28;19920;-67
2022/01/30 11:30:55;;;;;;;;;;;7.50;99.90;;;;;;5074066;28;19917;-63
2022/01/30 11:33:21;;;;;;;;;;;7.70;99.90;;;;;;5074223;28;20295;-61
2022/01/30 11:35:47;;;;;;;;;;;7.60;99.90;;;;;;5074290;28;20010;-66
2022/01/30 11:38:13;;;;;;;;;;;7.60;99.90;;;;;;5061758;28;19967;-61
2022/01/30 11:40:38;;;;;;;;;;;7.80;99.90;;;;;;5054565;28;19986;-66
2022/01/30 11:43:07;;;;;;;;;;;7.90;99.90;;;;;;5065659;28;19969;-61
2022/01/30 11:45:33;;;;;;;;;;;7.90;99.90;;;;;;5072853;28;19941;-60
2022/01/30 11:48:19;;;;;;;;;;;8.20;99.90;;;;;;5070303;28;19923;-61
2022/01/30 11:50:44;;;;;;;;;;;8.10;99.90;;;;;;5072247;28;19923;-66
2022/01/30 11:53:11;;;;;;;;;;;8.20;99.90;;;;;;5074031;28;20023;-58
2022/01/30 11:56:00;;;;;;;;;;;8.10;99.90;;;;;;5073623;28;19967;-60
2022/01/30 11:58:37;;;;;;;;;;;8.30;99.90;;;;;;5074164;28;19962;-58
2022/01/30 12:01:13;;;;;;;;;;;8.50;99.90;;;;;;5073451;28;19917;-61
2022/01/30 12:03:51;;;;;;;;;;;8.20;99.90;;;;;;5074011;28;19923;-61
2022/01/30 12:06:19;;;;;;;;;;;8.30;99.90;;;;;;5073868;28;20000;-66
2022/01/30 12:08:46;;;;;;;;;;;8.50;99.90;;;;;;5073535;28;20007;-60
2022/01/30 12:11:30;;;;;;;;;;;8.40;99.90;;;;;;5073775;28;19917;-60
2022/01/30 12:13:56;;;;;;;;;;;8.40;99.90;;;;;;5073459;28;19924;-60
2022/01/30 12:16:40;;;;;;;;;;;8.30;99.90;;;;;;5070313;28;20269;-63
2022/01/30 12:19:06;;;;;;;;;;;;;;;;;;5073733;28;20320;-67
2022/01/30 12:21:31;;;;;;;;;;;8.10;99.90;;;;;;5056039;28;19964;-58
2022/01/30 12:24:17;;;;;;;;;;;8.20;99.90;;;;;;5069513;28;19985;-63
2022/01/30 12:26:52;;;;;;;;;;;8.00;99.90;;;;;;5053863;28;19916;-60
2022/01/30 12:29:37;;;;;;;;;;;8.10;99.90;;;;;;5036596;28;19917;-59
2022/01/30 12:32:21;;;;;;;;;;;7.60;99.90;;;;;;5046097;28;19925;-60
2022/01/30 12:35:07;;;;;;;;;;;7.80;99.90;;;;;;5052756;28;19924;-61
2022/01/30 12:37:34;;;;;;;;;;;8.00;99.90;;;;;;5053257;28;19983;-64
2022/01/30 12:40:01;;;;;;;;;;;7.90;99.90;;;;;;5029733;28;19921;-61
2022/01/30 12:42:27;;;;;;;;;;;;;;;;;;5053521;28;20011;-61
2022/01/30 12:44:58;;;;;;;;;;;7.80;99.90;;;;;;5051092;28;20012;-62
2022/01/30 12:47:24;;;;;;;;;;;7.90;99.90;;;;;;5044531;28;19916;-63
2022/01/30 12:49:52;;;;;;;;;;;7.90;99.90;;;;;;5049293;28;19917;-65
2022/01/30 12:52:32;;;;;;;;;;;8.30;99.90;;;;;;5034050;28;20011;-63
2022/01/30 12:55:01;;;;;;;;;;;8.20;99.90;;;;;;5055068;28;19970;-61
2022/01/30 12:57:30;;;;;;;;;;;8.40;99.90;;;;;;5048898;28;19999;-62
2022/01/30 12:59:57;;;;;;;;;;;8.30;99.90;;;;;;5056014;28;20023;-60
2022/01/30 13:02:23;;;;;;;;;;;;;;;;;;5054237;28;19921;-64
2022/01/30 13:04:58;;;;;;;;;;;8.20;99.90;;;;;;5051262;28;19917;-64
2022/01/30 13:07:23;;;;;;;;;;;8.30;99.90;;;;;;5056090;28;19971;-62
2022/01/30 13:09:48;;;;;;;;;;;7.90;99.90;;;;;;5022585;28;19966;-59
2022/01/30 13:12:15;;;;;;;;;;;8.10;99.90;;;;;;5035056;28;19970;-58
2022/01/30 13:14:44;;;;;;;;;;;8.00;99.90;;;;;;5021602;28;19920;-64
2022/01/30 13:17:12;;;;;;;;;;;8.10;99.90;;;;;;5038935;28;19928;-62
2022/01/30 13:19:39;;;;;;;;;;;8.20;99.90;;;;;;5055682;28;20334;-60
2022/01/30 13:22:07;;;;;;;;;;;8.30;99.90;;;;;;5017108;28;20308;-66
2022/01/30 13:24:34;;;;;;;;;;;8.30;99.90;;;;;;5054826;28;19917;-66
2022/01/30 13:27:01;;;;;;;;;;;;;;;;;;5054499;28;19979;-63
2022/01/30 13:29:27;;;;;;;;;;;8.30;99.90;;;;;;5054040;28;19917;-64
2022/01/30 13:31:54;;;;;;;;;;;;;;;;;;5053337;28;19925;-64
2022/01/30 13:34:33;;;;;;;;;;;8.20;99.90;;;;;;5036889;28;20385;-60
2022/01/30 13:37:02;;;;;;;;;;;8.20;99.90;;;;;;5054424;28;19924;-65
2022/01/30 13:39:38;;;;;;;;;;;8.10;99.90;;;;;;5020196;28;20338;-61
2022/01/30 13:42:17;;;;;;;;;;;;;;;;;;5045058;28;19920;-64
2022/01/30 13:44:50;;;;;;;;;;;7.90;99.90;;;;;;5026671;28;19936;-63
2022/01/30 13:47:20;;;;;;;;;;;7.60;99.90;;;;;;5035284;28;20007;-59
2022/01/30 13:49:49;;;;;;;;;;;;;;;;;;5046716;28;19925;-63
2022/01/30 13:52:16;;;;;;;;;;;7.70;99.90;;;;;;5047344;28;19927;-63
2022/01/30 13:54:41;;;;;;;;;;;7.80;99.90;;;;;;5060931;28;20008;-63
2022/01/30 13:57:08;;;;;;;;;;;7.90;99.90;;;;;;5059683;28;20042;-63
2022/01/30 13:59:33;;;;;;;;;;;7.80;99.90;;;;;;5052691;28;20408;-61
2022/01/30 14:02:02;;;;;;;;;;;;;;;;;;5053411;28;19928;-64
2022/01/30 14:04:28;;;;;;;;;;;8.00;99.90;;;;;;5052045;28;20353;-59
2022/01/30 14:06:55;;;;;;;;;;;7.70;99.90;;;;;;5053158;28;19927;-65
2022/01/30 14:09:25;;;;;;;;;;;7.80;99.90;;;;;;5054060;28;19920;-66
2022/01/30 14:12:02;;;;;;;;;;;7.80;99.90;;;;;;5058865;28;19929;-62
2022/01/30 14:14:28;;;;;;;;;;;7.90;99.90;;;;;;5054201;28;19921;-61
2022/01/30 14:16:54;;;;;;;;;;;;;;;;;;5054284;28;19927;-63
2022/01/30 14:19:21;;;;;;;;;;;;;;;;;;5033781;28;19925;-66
2022/01/30 14:21:49;;;;;;;;;;;7.90;99.90;;;;;;5039513;28;19920;-63
2022/01/30 14:24:15;;;;;;;;;;;;;;;;;;5032435;28;20405;-67
2022/01/30 14:26:41;;;;;;;;;;;;;;;;;;5023368;28;19935;-63
2022/01/30 14:29:07;;;;;;;;;;;;;;;;;;5055513;28;19921;-63
2022/01/30 14:31:33;;;;;;;;;;;7.60;99.90;;;;;;5037037;28;19920;-62
2022/01/30 14:33:58;;;;;;;;;;;7.50;99.90;;;;;;5053091;28;19943;-63
2022/01/30 14:36:28;;;;;;;;;;;8.00;99.90;;;;;;5053837;28;20003;-63
2022/01/30 14:38:54;;;;;;;;;;;7.80;99.90;;;;;;5031263;28;19932;-63
2022/01/30 14:41:19;;;;;;;;;;;7.60;99.90;;;;;;5022031;28;20362;-62
2022/01/30 14:43:45;;;;;;;;;;;7.70;99.90;;;;;;5051342;28;19925;-65
2022/01/30 14:46:11;;;;;;;;;;;;;;;;;;5049744;28;19971;-63
2022/01/30 14:48:37;;;;;;;;;;;7.30;99.90;;;;;;5058171;28;19932;-60
2022/01/30 14:51:03;;;;;;;;;;;7.60;99.90;;;;;;5051671;28;19947;-62
2022/01/30 14:53:29;;;;;;;;;;;;;;;;;;5047767;28;20366;-62
2022/01/30 14:55:54;;;;;;;;;;;7.30;99.90;;;;;;5030272;28;20013;-60
2022/01/30 14:58:22;;;;;;;;;;;7.30;99.90;;;;;;5048173;28;19916;-58
2022/01/30 15:00:48;;;;;;;;;;;7.50;99.90;;;;;;5001005;28;19963;-58
2022/01/30 15:03:14;;;;;;;;;;;;;;;;;;5051837;28;20401;-63
2022/01/30 15:05:39;;;;;;;;;;;7.00;99.90;;;;;;5050575;28;19921;-59
2022/01/30 15:08:05;;;;;;;;;;;7.00;99.90;;;;;;5058632;28;20265;-63
2022/01/30 15:10:30;;;;;;;;;;;7.00;99.90;;;;;;5056690;28;20331;-62
2022/01/30 15:12:56;;;;;;;;;;;7.20;99.90;;;;;;5046294;28;19916;-62
2022/01/30 15:15:22;;;;;;;;;;;6.90;99.90;;;;;;5053884;28;19963;-62
2022/01/30 15:17:51;;;;;;;;;;;6.90;99.90;;;;;;5054557;28;19971;-60
2022/01/30 15:20:16;;;;;;;;;;;6.70;99.90;;;;;;5034727;28;19962;-62
2022/01/30 15:22:42;;;;;;;;;;;6.80;99.90;;;;;;5028779;28;20000;-62
2022/01/30 15:25:08;;;;;;;;;;;6.60;99.90;;;;;;5044546;28;19924;-63
2022/01/30 15:27:35;;;;;;;;;;;6.50;99.90;;;;;;5043276;28;20022;-62
2022/01/30 15:30:01;;;;;;;;;;;6.40;99.90;;;;;;5054445;28;19916;-62
2022/01/30 15:32:26;;;;;;;;;;;6.40;99.90;;;;;;5030336;28;19977;-62
2022/01/30 15:34:56;;;;;;;;;;;;;;;;;;5035173;28;20031;-63